Palisade, NE (69040)

1:25 AM CDT on July 27, 2016 (GMT -0500)
Palisade | | Change Station

Elev 2768 ft 40.35 °N, 101.11 °W | Updated 20 seconds ago

Clear
Clear
71.4 °F
Feels Like 72 °F
N
3.7
Wind Variable Wind from NNW

Today
High -- | Low -- °F
--% Chance of Precip.
Yesterday
High -- | Low -- °F
Precip. -- in
Pressure 29.95 in
Visibility 10.0 miles
Clouds Clear
Heat Index 72 °F
Dew Point 65 °F
Humidity 81%
Rainfall 0.00 in
Snow Depth Not available.
6:37 AM 9:03 PM
Waning Gibbous, 46% visible
METAR KMCK 270553Z AUTO 15005KT 10SM CLR 25/18 A3003 RMK AO2 SLP140 T02500183 10311 20250 403390178 50014
Pressure 29.95 in
Visibility 10.0 miles
Clouds Clear
Heat Index 72 °F
Dew Point 65 °F
Humidity 81%
Rainfall 0.00 in
Snow Depth Not available.
6:37 AM 9:03 PM
Waning Gibbous, 46% visible
METAR KMCK 270553Z AUTO 15005KT 10SM CLR 25/18 A3003 RMK AO2 SLP140 T02500183 10311 20250 403390178 50014

10-Day Weather Forecast

Almanac

Astronomy

Jul. 27, 2016 Rise Set
Actual Time
Civil Twilight
Nautical Twilight
Astronomical Twilight
Moon
Length of Visible Light
Length of Day
Tomorrow will be .
, % of the Moon is Illuminated

Today's Extremes

State Highs State Lows

Community

WunderPhotos

Upload Photos

1,927,818 photos uploaded!

WunderBlog® & News

Nearby

Air Quality

  Air Quality AQ Index Pollutant
Not available.

Snow Depth

Station Depth Elevation

Earthquake Activity

City Distance Mag. Time & Date
Minimum magnitude displayed is 2.5.

Coastal Water Temperatures

Place Temperature

Stations

Nearby Weather Stations

Station Location Temp. Windchill Dew Point Humidity Wind Precip. Elev Updated Type
                   

Watches & Warnings

There are currently no watches in effect.